sensor_id;sensor_type;location;lat;lon;timestamp;P1;durP1;ratioP1;P2;durP2;ratioP2
45033;SDS011;30771;47.988;-4.186;2022-11-24T07:01:35;48.92;;;5.47;;
45033;SDS011;30771;47.988;-4.186;2022-11-24T07:04:01;52.35;;;5.55;;
45033;SDS011;30771;47.988;-4.186;2022-11-24T07:06:26;45.45;;;5.15;;
45033;SDS011;30771;47.988;-4.186;2022-11-24T07:08:51;46.20;;;5.70;;
45033;SDS011;30771;47.988;-4.186;2022-11-24T07:11:18;46.38;;;5.90;;
45033;SDS011;30771;47.988;-4.186;2022-11-24T07:13:45;49.30;;;5.95;;
45033;SDS011;30771;47.988;-4.186;2022-11-24T07:16:15;51.67;;;6.70;;
45033;SDS011;30771;47.988;-4.186;2022-11-24T07:18:43;46.15;;;5.13;;
45033;SDS011;30771;47.988;-4.186;2022-11-24T07:21:09;42.30;;;5.03;;
45033;SDS011;30771;47.988;-4.186;2022-11-24T07:23:35;49.88;;;5.57;;
45033;SDS011;30771;47.988;-4.186;2022-11-24T07:26:02;34.80;;;4.50;;
45033;SDS011;30771;47.988;-4.186;2022-11-24T07:28:28;44.58;;;5.35;;
45033;SDS011;30771;47.988;-4.186;2022-11-24T07:30:53;40.78;;;4.38;;
45033;SDS011;30771;47.988;-4.186;2022-11-24T07:33:19;43.75;;;4.65;;
45033;SDS011;30771;47.988;-4.186;2022-11-24T07:35:44;44.83;;;6.47;;
45033;SDS011;30771;47.988;-4.186;2022-11-24T07:38:09;52.17;;;6.45;;
45033;SDS011;30771;47.988;-4.186;2022-11-24T07:40:34;50.50;;;5.30;;
45033;SDS011;30771;47.988;-4.186;2022-11-24T07:43:00;39.47;;;6.03;;
45033;SDS011;30771;47.988;-4.186;2022-11-24T07:45:25;53.08;;;5.88;;
45033;SDS011;30771;47.988;-4.186;2022-11-24T07:47:51;45.20;;;6.15;;
45033;SDS011;30771;47.988;-4.186;2022-11-24T07:50:16;50.25;;;6.43;;
45033;SDS011;30771;47.988;-4.186;2022-11-24T07:52:41;58.95;;;6.38;;
45033;SDS011;30771;47.988;-4.186;2022-11-24T07:55:07;38.40;;;5.28;;
45033;SDS011;30771;47.988;-4.186;2022-11-24T07:57:33;44.78;;;6.57;;
45033;SDS011;30771;47.988;-4.186;2022-11-24T07:59:58;49.05;;;7.25;;
45033;SDS011;30771;47.988;-4.186;2022-11-24T08:02:23;58.05;;;7.28;;
45033;SDS011;30771;47.988;-4.186;2022-11-24T08:04:48;55.60;;;8.50;;
45033;SDS011;30771;47.988;-4.186;2022-11-24T08:07:14;43.83;;;7.03;;
45033;SDS011;30771;47.988;-4.186;2022-11-24T08:09:39;42.85;;;7.18;;
45033;SDS011;30771;47.988;-4.186;2022-11-24T08:12:04;43.47;;;6.15;;
45033;SDS011;30771;47.988;-4.186;2022-11-24T08:14:30;40.40;;;5.00;;
45033;SDS011;30771;47.988;-4.186;2022-11-24T08:16:56;37.95;;;6.13;;
45033;SDS011;30771;47.988;-4.186;2022-11-24T08:19:21;50.53;;;6.13;;
45033;SDS011;30771;47.988;-4.186;2022-11-24T08:21:47;50.45;;;5.93;;
45033;SDS011;30771;47.988;-4.186;2022-11-24T08:24:12;47.63;;;6.20;;
45033;SDS011;30771;47.988;-4.186;2022-11-24T08:26:37;47.85;;;5.13;;
45033;SDS011;30771;47.988;-4.186;2022-11-24T08:29:02;38.42;;;4.57;;
45033;SDS011;30771;47.988;-4.186;2022-11-24T08:31:28;46.03;;;6.78;;
45033;SDS011;30771;47.988;-4.186;2022-11-24T08:33:56;44.33;;;4.97;;
45033;SDS011;30771;47.988;-4.186;2022-11-24T08:36:22;46.42;;;5.03;;
45033;SDS011;30771;47.988;-4.186;2022-11-24T08:38:47;46.95;;;5.57;;
45033;SDS011;30771;47.988;-4.186;2022-11-24T08:41:13;42.40;;;5.13;;
45033;SDS011;30771;47.988;-4.186;2022-11-24T08:43:40;43.13;;;5.53;;
45033;SDS011;30771;47.988;-4.186;2022-11-24T08:46:06;37.97;;;5.35;;
45033;SDS011;30771;47.988;-4.186;2022-11-24T08:48:34;36.38;;;5.65;;
45033;SDS011;30771;47.988;-4.186;2022-11-24T08:51:07;55.35;;;6.25;;
45033;SDS011;30771;47.988;-4.186;2022-11-24T08:53:37;42.72;;;5.65;;
45033;SDS011;30771;47.988;-4.186;2022-11-24T08:56:03;40.13;;;5.72;;
45033;SDS011;30771;47.988;-4.186;2022-11-24T08:58:30;52.30;;;6.13;;
45033;SDS011;30771;47.988;-4.186;2022-11-24T09:01:02;51.88;;;5.53;;
45033;SDS011;30771;47.988;-4.186;2022-11-24T09:03:35;55.42;;;5.75;;
45033;SDS011;30771;47.988;-4.186;2022-11-24T09:06:01;44.72;;;4.65;;
45033;SDS011;30771;47.988;-4.186;2022-11-24T09:08:28;39.85;;;5.55;;
45033;SDS011;30771;47.988;-4.186;2022-11-24T09:10:57;43.88;;;6.43;;
45033;SDS011;30771;47.988;-4.186;2022-11-24T09:13:24;34.15;;;5.53;;
45033;SDS011;30771;47.988;-4.186;2022-11-24T09:15:49;31.30;;;5.03;;
45033;SDS011;30771;47.988;-4.186;2022-11-24T09:18:14;41.28;;;5.40;;
45033;SDS011;30771;47.988;-4.186;2022-11-24T09:20:39;47.83;;;5.65;;
45033;SDS011;30771;47.988;-4.186;2022-11-24T09:23:05;37.78;;;4.85;;
45033;SDS011;30771;47.988;-4.186;2022-11-24T09:25:30;58.20;;;5.70;;
45033;SDS011;30771;47.988;-4.186;2022-11-24T09:27:55;37.92;;;5.07;;
45033;SDS011;30771;47.988;-4.186;2022-11-24T09:30:20;48.78;;;5.75;;
45033;SDS011;30771;47.988;-4.186;2022-11-24T09:32:46;41.80;;;6.28;;
45033;SDS011;30771;47.988;-4.186;2022-11-24T09:35:11;50.53;;;5.65;;
45033;SDS011;30771;47.988;-4.186;2022-11-24T09:37:36;45.22;;;5.28;;
45033;SDS011;30771;47.988;-4.186;2022-11-24T09:40:02;45.33;;;6.20;;
45033;SDS011;30771;47.988;-4.186;2022-11-24T09:48:10;39.13;;;5.45;;
45033;SDS011;30771;47.988;-4.186;2022-11-24T09:50:45;36.75;;;4.93;;
45033;SDS011;30771;47.988;-4.186;2022-11-24T09:55:57;43.90;;;5.40;;
45033;SDS011;30771;47.988;-4.186;2022-11-24T09:58:34;40.20;;;5.13;;
45033;SDS011;30771;47.988;-4.186;2022-11-24T10:04:17;34.90;;;4.68;;
45033;SDS011;30771;47.988;-4.186;2022-11-24T10:17:56;45.58;;;5.93;;
45033;SDS011;30771;47.988;-4.186;2022-11-24T10:20:57;40.25;;;5.68;;
45033;SDS011;30771;47.988;-4.186;2022-11-24T10:26:43;37.28;;;4.85;;
45033;SDS011;30771;47.988;-4.186;2022-11-24T10:31:52;52.28;;;5.85;;
45033;SDS011;30771;47.988;-4.186;2022-11-24T10:34:22;45.60;;;5.30;;
45033;SDS011;30771;47.988;-4.186;2022-11-24T10:36:56;41.03;;;6.88;;
45033;SDS011;30771;47.988;-4.186;2022-11-24T10:39:31;50.00;;;6.90;;
45033;SDS011;30771;47.988;-4.186;2022-11-24T10:44:43;46.55;;;6.75;;
45033;SDS011;30771;47.988;-4.186;2022-11-24T10:47:14;42.25;;;5.47;;
45033;SDS011;30771;47.988;-4.186;2022-11-24T10:49:41;52.60;;;5.95;;
45033;SDS011;30771;47.988;-4.186;2022-11-24T10:52:16;39.20;;;6.53;;
45033;SDS011;30771;47.988;-4.186;2022-11-24T10:55:43;50.65;;;7.00;;
45033;SDS011;30771;47.988;-4.186;2022-11-24T10:57:40;38.42;;;5.82;;
45033;SDS011;30771;47.988;-4.186;2022-11-24T11:02:43;44.08;;;6.63;;
45033;SDS011;30771;47.988;-4.186;2022-11-24T11:05:26;52.85;;;6.95;;
45033;SDS011;30771;47.988;-4.186;2022-11-24T11:10:37;49.83;;;8.25;;
45033;SDS011;30771;47.988;-4.186;2022-11-24T11:13:21;47.83;;;7.03;;
45033;SDS011;30771;47.988;-4.186;2022-11-24T11:15:47;47.47;;;6.50;;
45033;SDS011;30771;47.988;-4.186;2022-11-24T11:18:16;60.72;;;7.80;;
45033;SDS011;30771;47.988;-4.186;2022-11-24T11:20:50;50.75;;;7.38;;
45033;SDS011;30771;47.988;-4.186;2022-11-24T11:23:27;49.90;;;7.50;;
45033;SDS011;30771;47.988;-4.186;2022-11-24T11:29:12;63.85;;;7.38;;
45033;SDS011;30771;47.988;-4.186;2022-11-24T11:31:39;51.53;;;7.82;;
45033;SDS011;30771;47.988;-4.186;2022-11-24T11:36:33;11.18;;;1.30;;
45033;SDS011;30771;47.988;-4.186;2022-11-24T11:39:04;4.13;;;0.82;;
45033;SDS011;30771;47.988;-4.186;2022-11-24T11:41:32;4.35;;;0.60;;
45033;SDS011;30771;47.988;-4.186;2022-11-24T11:46:58;4.53;;;1.20;;
45033;SDS011;30771;47.988;-4.186;2022-11-24T11:49:26;4.65;;;1.30;;
45033;SDS011;30771;47.988;-4.186;2022-11-24T11:51:55;2.95;;;0.68;;
45033;SDS011;30771;47.988;-4.186;2022-11-24T12:02:55;12.30;;;1.88;;
45033;SDS011;30771;47.988;-4.186;2022-11-24T12:05:56;18.02;;;6.07;;
45033;SDS011;30771;47.988;-4.186;2022-11-24T12:11:04;82.15;;;40.95;;
45033;SDS011;30771;47.988;-4.186;2022-11-24T12:30:04;64.20;;;9.05;;
45033;SDS011;30771;47.988;-4.186;2022-11-24T12:43:42;26.13;;;3.55;;
45033;SDS011;30771;47.988;-4.186;2022-11-24T12:51:33;25.35;;;3.83;;
45033;SDS011;30771;47.988;-4.186;2022-11-24T12:54:02;32.17;;;4.32;;
45033;SDS011;30771;47.988;-4.186;2022-11-24T12:59:19;47.95;;;5.80;;
45033;SDS011;30771;47.988;-4.186;2022-11-24T13:02:12;49.38;;;7.35;;
45033;SDS011;30771;47.988;-4.186;2022-11-24T13:07:36;31.50;;;4.18;;
45033;SDS011;30771;47.988;-4.186;2022-11-24T13:15:26;29.17;;;3.92;;
45033;SDS011;30771;47.988;-4.186;2022-11-24T13:17:53;29.02;;;4.75;;
45033;SDS011;30771;47.988;-4.186;2022-11-24T13:25:24;27.70;;;4.57;;
45033;SDS011;30771;47.988;-4.186;2022-11-24T13:27:52;29.45;;;4.15;;
45033;SDS011;30771;47.988;-4.186;2022-11-24T13:33:16;28.30;;;4.85;;
45033;SDS011;30771;47.988;-4.186;2022-11-24T13:36:51;30.88;;;4.22;;
45033;SDS011;30771;47.988;-4.186;2022-11-24T13:49:20;42.20;;;4.38;;
45033;SDS011;30771;47.988;-4.186;2022-11-24T13:51:46;27.67;;;3.63;;
45033;SDS011;30771;47.988;-4.186;2022-11-24T13:54:11;32.97;;;3.75;;
45033;SDS011;30771;47.988;-4.186;2022-11-24T13:56:36;35.85;;;3.92;;
45033;SDS011;30771;47.988;-4.186;2022-11-24T13:59:13;27.15;;;3.80;;
45033;SDS011;30771;47.988;-4.186;2022-11-24T14:01:41;36.50;;;4.22;;
45033;SDS011;30771;47.988;-4.186;2022-11-24T14:14:23;45.28;;;14.98;;
45033;SDS011;30771;47.988;-4.186;2022-11-24T14:17:04;32.90;;;4.55;;
45033;SDS011;30771;47.988;-4.186;2022-11-24T14:19:40;34.47;;;12.80;;
45033;SDS011;30771;47.988;-4.186;2022-11-24T14:25:03;37.67;;;19.38;;
45033;SDS011;30771;47.988;-4.186;2022-11-24T14:27:29;22.63;;;5.45;;
45033;SDS011;30771;47.988;-4.186;2022-11-24T14:29:58;23.70;;;7.10;;
45033;SDS011;30771;47.988;-4.186;2022-11-24T14:32:29;29.83;;;8.82;;
45033;SDS011;30771;47.988;-4.186;2022-11-24T14:34:54;25.75;;;3.75;;
45033;SDS011;30771;47.988;-4.186;2022-11-24T14:37:20;37.05;;;4.95;;
45033;SDS011;30771;47.988;-4.186;2022-11-24T14:39:45;36.40;;;4.68;;
45033;SDS011;30771;47.988;-4.186;2022-11-24T14:49:53;40.97;;;5.88;;
45033;SDS011;30771;47.988;-4.186;2022-11-24T14:52:20;37.03;;;5.47;;
45033;SDS011;30771;47.988;-4.186;2022-11-24T14:54:49;62.95;;;19.98;;
45033;SDS011;30771;47.988;-4.186;2022-11-24T14:57:35;42.78;;;5.43;;
45033;SDS011;30771;47.988;-4.186;2022-11-24T15:02:40;43.40;;;5.57;;
45033;SDS011;30771;47.988;-4.186;2022-11-24T15:05:07;42.15;;;6.93;;
45033;SDS011;30771;47.988;-4.186;2022-11-24T15:07:33;38.92;;;6.13;;
45033;SDS011;30771;47.988;-4.186;2022-11-24T15:10:02;40.72;;;6.80;;
45033;SDS011;30771;47.988;-4.186;2022-11-24T15:15:02;40.67;;;6.38;;
45033;SDS011;30771;47.988;-4.186;2022-11-24T15:17:30;36.55;;;5.45;;
45033;SDS011;30771;47.988;-4.186;2022-11-24T15:20:00;38.88;;;5.45;;
45033;SDS011;30771;47.988;-4.186;2022-11-24T15:25:01;49.55;;;6.57;;
45033;SDS011;30771;47.988;-4.186;2022-11-24T15:27:26;49.80;;;7.22;;
45033;SDS011;30771;47.988;-4.186;2022-11-24T15:29:51;38.65;;;6.18;;
45033;SDS011;30771;47.988;-4.186;2022-11-24T15:32:17;51.10;;;6.55;;
45033;SDS011;30771;47.988;-4.186;2022-11-24T15:34:42;51.60;;;7.57;;
45033;SDS011;30771;47.988;-4.186;2022-11-24T15:37:08;52.05;;;6.90;;
45033;SDS011;30771;47.988;-4.186;2022-11-24T15:39:34;52.53;;;6.78;;
45033;SDS011;30771;47.988;-4.186;2022-11-24T15:41:59;61.00;;;7.90;;
45033;SDS011;30771;47.988;-4.186;2022-11-24T15:44:25;57.58;;;7.20;;
45033;SDS011;30771;47.988;-4.186;2022-11-24T15:46:50;49.17;;;6.53;;
45033;SDS011;30771;47.988;-4.186;2022-11-24T15:49:15;58.67;;;7.57;;
45033;SDS011;30771;47.988;-4.186;2022-11-24T15:51:41;57.88;;;8.05;;
45033;SDS011;30771;47.988;-4.186;2022-11-24T15:54:10;54.73;;;7.10;;
45033;SDS011;30771;47.988;-4.186;2022-11-24T15:56:39;75.85;;;8.75;;
45033;SDS011;30771;47.988;-4.186;2022-11-24T15:59:05;57.30;;;7.53;;
45033;SDS011;30771;47.988;-4.186;2022-11-24T16:01:31;59.30;;;7.78;;
45033;SDS011;30771;47.988;-4.186;2022-11-24T16:03:57;71.50;;;8.65;;
45033;SDS011;30771;47.988;-4.186;2022-11-24T16:06:22;70.35;;;8.18;;
45033;SDS011;30771;47.988;-4.186;2022-11-24T16:08:47;53.03;;;7.88;;
45033;SDS011;30771;47.988;-4.186;2022-11-24T16:11:13;52.92;;;8.63;;
45033;SDS011;30771;47.988;-4.186;2022-11-24T16:13:38;65.18;;;8.07;;
45033;SDS011;30771;47.988;-4.186;2022-11-24T16:16:03;67.90;;;8.57;;
45033;SDS011;30771;47.988;-4.186;2022-11-24T16:18:29;59.25;;;7.72;;
45033;SDS011;30771;47.988;-4.186;2022-11-24T16:20:54;57.90;;;8.88;;
45033;SDS011;30771;47.988;-4.186;2022-11-24T16:23:20;58.00;;;8.45;;
45033;SDS011;30771;47.988;-4.186;2022-11-24T16:25:45;59.30;;;7.38;;
45033;SDS011;30771;47.988;-4.186;2022-11-24T16:28:10;60.22;;;9.00;;
45033;SDS011;30771;47.988;-4.186;2022-11-24T16:30:35;72.03;;;8.18;;
45033;SDS011;30771;47.988;-4.186;2022-11-24T16:33:04;57.88;;;8.20;;
45033;SDS011;30771;47.988;-4.186;2022-11-24T16:35:29;57.50;;;7.82;;
45033;SDS011;30771;47.988;-4.186;2022-11-24T16:37:54;62.30;;;9.15;;
45033;SDS011;30771;47.988;-4.186;2022-11-24T16:40:20;72.60;;;10.27;;
45033;SDS011;30771;47.988;-4.186;2022-11-24T16:42:45;49.42;;;7.78;;
45033;SDS011;30771;47.988;-4.186;2022-11-24T16:45:10;38.58;;;7.05;;
45033;SDS011;30771;47.988;-4.186;2022-11-24T16:47:40;50.22;;;5.68;;
45033;SDS011;30771;47.988;-4.186;2022-11-24T16:50:07;48.67;;;7.18;;
45033;SDS011;30771;47.988;-4.186;2022-11-24T16:52:34;49.72;;;6.70;;
45033;SDS011;30771;47.988;-4.186;2022-11-24T16:55:01;41.15;;;6.22;;
45033;SDS011;30771;47.988;-4.186;2022-11-24T16:57:26;54.85;;;7.57;;
45033;SDS011;30771;47.988;-4.186;2022-11-24T16:59:51;50.92;;;7.18;;
45033;SDS011;30771;47.988;-4.186;2022-11-24T17:02:18;57.13;;;8.75;;
45033;SDS011;30771;47.988;-4.186;2022-11-24T17:04:45;64.93;;;14.77;;
45033;SDS011;30771;47.988;-4.186;2022-11-24T17:07:11;76.22;;;17.45;;
45033;SDS011;30771;47.988;-4.186;2022-11-24T17:09:39;54.72;;;11.98;;
45033;SDS011;30771;47.988;-4.186;2022-11-24T17:12:04;63.13;;;12.55;;
45033;SDS011;30771;47.988;-4.186;2022-11-24T17:14:30;50.65;;;9.73;;
45033;SDS011;30771;47.988;-4.186;2022-11-24T17:16:55;57.97;;;12.27;;
45033;SDS011;30771;47.988;-4.186;2022-11-24T17:19:20;54.10;;;9.32;;
45033;SDS011;30771;47.988;-4.186;2022-11-24T17:21:46;58.72;;;6.78;;
45033;SDS011;30771;47.988;-4.186;2022-11-24T17:24:11;38.20;;;5.95;;
45033;SDS011;30771;47.988;-4.186;2022-11-24T17:26:41;26.73;;;3.83;;
45033;SDS011;30771;47.988;-4.186;2022-11-24T17:29:07;31.20;;;4.60;;
45033;SDS011;30771;47.988;-4.186;2022-11-24T17:31:33;34.42;;;4.35;;
45033;SDS011;30771;47.988;-4.186;2022-11-24T17:33:59;29.40;;;4.05;;
45033;SDS011;30771;47.988;-4.186;2022-11-24T17:36:27;27.48;;;3.72;;
45033;SDS011;30771;47.988;-4.186;2022-11-24T17:38:54;29.40;;;5.85;;
45033;SDS011;30771;47.988;-4.186;2022-11-24T17:41:20;42.17;;;7.50;;
45033;SDS011;30771;47.988;-4.186;2022-11-24T17:43:49;30.08;;;6.28;;
45033;SDS011;30771;47.988;-4.186;2022-11-24T17:46:16;37.60;;;6.50;;
45033;SDS011;30771;47.988;-4.186;2022-11-24T17:48:41;37.83;;;9.10;;
45033;SDS011;30771;47.988;-4.186;2022-11-24T17:51:09;43.75;;;8.32;;
45033;SDS011;30771;47.988;-4.186;2022-11-24T17:53:37;50.85;;;15.45;;
45033;SDS011;30771;47.988;-4.186;2022-11-24T17:56:04;59.40;;;17.15;;
45033;SDS011;30771;47.988;-4.186;2022-11-24T17:58:31;54.08;;;12.13;;
45033;SDS011;30771;47.988;-4.186;2022-11-24T18:00:58;55.70;;;13.02;;
45033;SDS011;30771;47.988;-4.186;2022-11-24T18:03:23;49.50;;;9.77;;
45033;SDS011;30771;47.988;-4.186;2022-11-24T18:05:52;57.28;;;9.70;;
45033;SDS011;30771;47.988;-4.186;2022-11-24T18:08:20;57.17;;;9.35;;
45033;SDS011;30771;47.988;-4.186;2022-11-24T18:10:46;57.50;;;7.60;;
45033;SDS011;30771;47.988;-4.186;2022-11-24T18:13:11;46.72;;;6.28;;
45033;SDS011;30771;47.988;-4.186;2022-11-24T18:15:37;48.47;;;5.93;;
45033;SDS011;30771;47.988;-4.186;2022-11-24T18:18:02;43.00;;;6.30;;
45033;SDS011;30771;47.988;-4.186;2022-11-24T18:20:28;42.90;;;5.03;;
45033;SDS011;30771;47.988;-4.186;2022-11-24T18:22:55;38.53;;;5.60;;
45033;SDS011;30771;47.988;-4.186;2022-11-24T18:25:20;39.03;;;7.03;;
45033;SDS011;30771;47.988;-4.186;2022-11-24T18:27:46;33.58;;;6.25;;
45033;SDS011;30771;47.988;-4.186;2022-11-24T18:30:12;40.60;;;6.00;;
45033;SDS011;30771;47.988;-4.186;2022-11-24T18:32:37;26.08;;;5.65;;
45033;SDS011;30771;47.988;-4.186;2022-11-24T18:35:03;41.72;;;7.00;;
45033;SDS011;30771;47.988;-4.186;2022-11-24T18:37:28;37.53;;;5.43;;
45033;SDS011;30771;47.988;-4.186;2022-11-24T18:39:58;37.92;;;6.93;;
45033;SDS011;30771;47.988;-4.186;2022-11-24T18:42:24;46.08;;;8.50;;
45033;SDS011;30771;47.988;-4.186;2022-11-24T18:44:50;34.38;;;6.80;;
45033;SDS011;30771;47.988;-4.186;2022-11-24T18:47:16;33.38;;;5.40;;
45033;SDS011;30771;47.988;-4.186;2022-11-24T18:49:42;44.10;;;7.72;;
45033;SDS011;30771;47.988;-4.186;2022-11-24T18:52:07;38.78;;;6.15;;
45033;SDS011;30771;47.988;-4.186;2022-11-24T18:54:33;37.90;;;6.20;;
45033;SDS011;30771;47.988;-4.186;2022-11-24T18:56:59;39.00;;;5.57;;
45033;SDS011;30771;47.988;-4.186;2022-11-24T18:59:24;42.20;;;6.85;;
45033;SDS011;30771;47.988;-4.186;2022-11-24T19:01:49;208.98;;;74.03;;
45033;SDS011;30771;47.988;-4.186;2022-11-24T19:04:15;99.13;;;29.25;;
45033;SDS011;30771;47.988;-4.186;2022-11-24T19:06:40;55.55;;;8.85;;
45033;SDS011;30771;47.988;-4.186;2022-11-24T19:09:13;56.40;;;9.77;;
45033;SDS011;30771;47.988;-4.186;2022-11-24T19:11:42;80.25;;;17.25;;
45033;SDS011;30771;47.988;-4.186;2022-11-24T19:14:13;54.92;;;10.02;;
45033;SDS011;30771;47.988;-4.186;2022-11-24T19:16:40;81.43;;;19.52;;
45033;SDS011;30771;47.988;-4.186;2022-11-24T19:19:05;50.40;;;8.07;;
45033;SDS011;30771;47.988;-4.186;2022-11-24T19:21:32;49.30;;;8.70;;
45033;SDS011;30771;47.988;-4.186;2022-11-24T19:24:00;52.25;;;12.50;;
45033;SDS011;30771;47.988;-4.186;2022-11-24T19:26:25;45.42;;;8.27;;
45033;SDS011;30771;47.988;-4.186;2022-11-24T19:28:50;49.25;;;9.75;;
45033;SDS011;30771;47.988;-4.186;2022-11-24T19:31:16;52.83;;;7.50;;
45033;SDS011;30771;47.988;-4.186;2022-11-24T19:33:42;52.33;;;7.07;;
45033;SDS011;30771;47.988;-4.186;2022-11-24T19:36:12;39.83;;;7.35;;
45033;SDS011;30771;47.988;-4.186;2022-11-24T19:38:39;48.45;;;11.57;;
45033;SDS011;30771;47.988;-4.186;2022-11-24T19:41:06;41.58;;;5.68;;
45033;SDS011;30771;47.988;-4.186;2022-11-24T19:43:33;42.03;;;6.63;;
45033;SDS011;30771;47.988;-4.186;2022-11-24T19:46:00;46.03;;;9.88;;
45033;SDS011;30771;47.988;-4.186;2022-11-24T19:48:36;42.58;;;8.75;;
45033;SDS011;30771;47.988;-4.186;2022-11-24T19:51:03;49.65;;;10.30;;
45033;SDS011;30771;47.988;-4.186;2022-11-24T19:53:31;39.22;;;6.38;;
45033;SDS011;30771;47.988;-4.186;2022-11-24T19:58:29;48.45;;;7.38;;
45033;SDS011;30771;47.988;-4.186;2022-11-24T20:03:57;46.17;;;8.13;;
45033;SDS011;30771;47.988;-4.186;2022-11-24T20:06:25;45.25;;;4.65;;
45033;SDS011;30771;47.988;-4.186;2022-11-24T20:08:52;32.50;;;6.27;;
45033;SDS011;30771;47.988;-4.186;2022-11-24T20:11:18;31.05;;;4.00;;
45033;SDS011;30771;47.988;-4.186;2022-11-24T20:13:46;31.38;;;4.38;;
45033;SDS011;30771;47.988;-4.186;2022-11-24T20:16:13;25.65;;;3.35;;
45033;SDS011;30771;47.988;-4.186;2022-11-24T20:18:42;23.60;;;3.50;;
45033;SDS011;30771;47.988;-4.186;2022-11-24T20:23:34;20.25;;;3.13;;
45033;SDS011;30771;47.988;-4.186;2022-11-24T20:26:07;24.10;;;3.78;;
45033;SDS011;30771;47.988;-4.186;2022-11-24T20:28:34;23.05;;;3.60;;
45033;SDS011;30771;47.988;-4.186;2022-11-24T20:31:00;26.30;;;3.15;;
45033;SDS011;30771;47.988;-4.186;2022-11-24T20:33:30;25.63;;;3.75;;
45033;SDS011;30771;47.988;-4.186;2022-11-24T20:36:00;30.35;;;3.58;;
45033;SDS011;30771;47.988;-4.186;2022-11-24T20:38:29;25.85;;;3.55;;
45033;SDS011;30771;47.988;-4.186;2022-11-24T20:41:02;29.17;;;3.30;;
45033;SDS011;30771;47.988;-4.186;2022-11-24T20:43:30;24.15;;;3.35;;
45033;SDS011;30771;47.988;-4.186;2022-11-24T20:45:56;27.48;;;3.30;;
45033;SDS011;30771;47.988;-4.186;2022-11-24T20:48:28;25.65;;;3.28;;
45033;SDS011;30771;47.988;-4.186;2022-11-24T20:50:53;32.97;;;4.40;;
45033;SDS011;30771;47.988;-4.186;2022-11-24T20:53:19;26.48;;;3.92;;
45033;SDS011;30771;47.988;-4.186;2022-11-24T20:55:44;24.67;;;4.45;;
45033;SDS011;30771;47.988;-4.186;2022-11-24T20:58:09;36.00;;;4.20;;
45033;SDS011;30771;47.988;-4.186;2022-11-24T21:00:34;28.10;;;4.00;;
45033;SDS011;30771;47.988;-4.186;2022-11-24T21:03:00;31.90;;;4.07;;
45033;SDS011;30771;47.988;-4.186;2022-11-24T21:05:25;25.42;;;3.85;;
45033;SDS011;30771;47.988;-4.186;2022-11-24T21:07:50;21.38;;;3.75;;
45033;SDS011;30771;47.988;-4.186;2022-11-24T21:10:16;23.73;;;3.72;;
45033;SDS011;30771;47.988;-4.186;2022-11-24T21:12:41;27.98;;;3.70;;
45033;SDS011;30771;47.988;-4.186;2022-11-24T21:15:06;30.65;;;4.30;;
45033;SDS011;30771;47.988;-4.186;2022-11-24T21:17:32;29.08;;;3.63;;
45033;SDS011;30771;47.988;-4.186;2022-11-24T21:19:57;35.00;;;4.10;;
45033;SDS011;30771;47.988;-4.186;2022-11-24T21:22:23;25.80;;;4.10;;
45033;SDS011;30771;47.988;-4.186;2022-11-24T21:24:48;27.58;;;3.70;;
45033;SDS011;30771;47.988;-4.186;2022-11-24T21:27:13;34.15;;;3.63;;
45033;SDS011;30771;47.988;-4.186;2022-11-24T21:29:39;40.63;;;4.60;;
45033;SDS011;30771;47.988;-4.186;2022-11-24T21:32:04;28.95;;;3.53;;
45033;SDS011;30771;47.988;-4.186;2022-11-24T21:34:29;22.52;;;3.85;;
45033;SDS011;30771;47.988;-4.186;2022-11-24T21:36:54;26.95;;;3.30;;
45033;SDS011;30771;47.988;-4.186;2022-11-24T21:39:20;35.17;;;4.15;;
45033;SDS011;30771;47.988;-4.186;2022-11-24T21:41:45;26.13;;;3.70;;
45033;SDS011;30771;47.988;-4.186;2022-11-24T21:44:11;29.08;;;3.28;;
45033;SDS011;30771;47.988;-4.186;2022-11-24T21:46:36;26.75;;;3.60;;
45033;SDS011;30771;47.988;-4.186;2022-11-24T21:49:02;28.73;;;3.45;;
45033;SDS011;30771;47.988;-4.186;2022-11-24T21:51:27;20.33;;;3.40;;
45033;SDS011;30771;47.988;-4.186;2022-11-24T21:53:53;21.30;;;2.90;;
45033;SDS011;30771;47.988;-4.186;2022-11-24T21:56:19;18.65;;;2.92;;
45033;SDS011;30771;47.988;-4.186;2022-11-24T21:58:46;20.50;;;3.00;;
45033;SDS011;30771;47.988;-4.186;2022-11-24T22:01:12;27.08;;;3.33;;
45033;SDS011;30771;47.988;-4.186;2022-11-24T22:03:38;28.27;;;3.17;;
45033;SDS011;30771;47.988;-4.186;2022-11-24T22:06:03;20.25;;;3.67;;
45033;SDS011;30771;47.988;-4.186;2022-11-24T22:08:29;23.77;;;3.63;;
45033;SDS011;30771;47.988;-4.186;2022-11-24T22:11:02;24.42;;;2.78;;
45033;SDS011;30771;47.988;-4.186;2022-11-24T22:13:29;28.00;;;3.17;;
45033;SDS011;30771;47.988;-4.186;2022-11-24T22:16:02;26.40;;;3.78;;
45033;SDS011;30771;47.988;-4.186;2022-11-24T22:18:32;22.63;;;3.58;;
45033;SDS011;30771;47.988;-4.186;2022-11-24T22:20:58;24.00;;;2.45;;
45033;SDS011;30771;47.988;-4.186;2022-11-24T22:23:24;17.73;;;2.70;;
45033;SDS011;30771;47.988;-4.186;2022-11-24T22:25:49;23.63;;;3.17;;
45033;SDS011;30771;47.988;-4.186;2022-11-24T22:28:14;25.88;;;2.88;;
45033;SDS011;30771;47.988;-4.186;2022-11-24T22:30:40;22.67;;;2.85;;
45033;SDS011;30771;47.988;-4.186;2022-11-24T22:33:05;24.42;;;2.85;;
45033;SDS011;30771;47.988;-4.186;2022-11-24T22:35:30;17.88;;;2.85;;
45033;SDS011;30771;47.988;-4.186;2022-11-24T22:37:56;24.40;;;3.72;;
45033;SDS011;30771;47.988;-4.186;2022-11-24T22:40:21;18.40;;;3.17;;
45033;SDS011;30771;47.988;-4.186;2022-11-24T22:42:46;27.77;;;3.00;;
45033;SDS011;30771;47.988;-4.186;2022-11-24T22:45:12;22.65;;;3.17;;
45033;SDS011;30771;47.988;-4.186;2022-11-24T22:47:37;26.02;;;3.22;;
45033;SDS011;30771;47.988;-4.186;2022-11-24T22:50:02;23.35;;;3.00;;
45033;SDS011;30771;47.988;-4.186;2022-11-24T22:52:28;23.77;;;3.38;;
45033;SDS011;30771;47.988;-4.186;2022-11-24T22:54:53;28.17;;;3.00;;
45033;SDS011;30771;47.988;-4.186;2022-11-24T22:57:18;37.63;;;4.55;;
45033;SDS011;30771;47.988;-4.186;2022-11-24T22:59:44;21.10;;;3.78;;
